Time;durP1;ratioP1;P1;durP2;ratioP2;P2;SDS_P1;SDS_P2;PMS_P1;PMS_P2;Temp;Humidity;BMP_temperature;BMP_pressure;BME280_temperature;BME280_humidity;BME280_pressure;Samples;Min_cycle;Max_cycle;Signal;HPM_P1;HPM_P2
2021/12/07 00:00:44;;;;;;;3.08;2.78;;;17.90;81.10;;;;;;5043187;28;20048;-65
2021/12/07 00:03:10;;;;;;;4.28;3.45;;;17.80;81.10;;;;;;5034197;28;20524;-65
2021/12/07 00:05:37;;;;;;;3.30;3.00;;;17.80;81.20;;;;;;5033879;28;20125;-65
2021/12/07 00:08:03;;;;;;;3.20;2.80;;;17.70;81.20;;;;;;5034507;28;20052;-65
2021/12/07 00:10:30;;;;;;;3.08;2.70;;;17.70;81.30;;;;;;5038379;28;20128;-65
2021/12/07 00:12:57;;;;;;;3.47;2.80;;;17.70;81.40;;;;;;5052926;28;20484;-65
2021/12/07 00:15:24;;;;;;;3.05;2.78;;;17.60;81.40;;;;;;5053511;28;20051;-65
2021/12/07 00:17:51;;;;;;;3.33;3.03;;;17.60;81.50;;;;;;5053858;28;20041;-65
2021/12/07 00:20:17;;;;;;;3.20;2.90;;;17.60;81.50;;;;;;5053369;28;20541;-64
2021/12/07 00:22:44;;;;;;;3.08;2.70;;;17.50;81.60;;;;;;5053202;28;20421;-64
2021/12/07 00:25:10;;;;;;;3.20;2.90;;;17.50;81.60;;;;;;5053307;28;20064;-65
2021/12/07 00:27:36;;;;;;;3.55;2.85;;;17.50;81.80;;;;;;5053119;28;20119;-65
2021/12/07 00:30:03;;;;;;;3.30;2.70;;;17.40;81.70;;;;;;5052586;28;20049;-65
2021/12/07 00:32:32;;;;;;;2.92;2.63;;;17.40;81.80;;;;;;5053067;28;20080;-64
2021/12/07 00:35:21;;;;;;;3.60;2.65;;;17.40;81.90;;;;;;5052400;28;20076;-65
2021/12/07 00:37:48;;;;;;;3.00;2.70;;;17.30;81.90;;;;;;5052936;28;20049;-65
2021/12/07 00:40:14;;;;;;;3.17;2.80;;;17.30;82.00;;;;;;5053407;28;20055;-64
2021/12/07 00:42:41;;;;;;;2.80;2.60;;;17.30;82.10;;;;;;5052438;28;20045;-65
2021/12/07 00:45:08;;;;;;;3.55;2.70;;;17.20;82.10;;;;;;5052199;28;20052;-65
2021/12/07 00:47:34;;;;;;;3.33;2.70;;;17.20;82.10;;;;;;5053033;28;20052;-64
2021/12/07 00:50:01;;;;;;;2.83;2.33;;;17.20;82.20;;;;;;5052881;28;20540;-65
2021/12/07 00:52:27;;;;;;;2.88;2.60;;;17.10;82.20;;;;;;5053053;28;20049;-65
2021/12/07 00:54:54;;;;;;;3.20;2.90;;;17.10;82.30;;;;;;5052590;28;20128;-65
2021/12/07 00:57:21;;;;;;;3.25;2.90;;;17.10;82.30;;;;;;5052181;28;20563;-65
2021/12/07 00:59:47;;;;;;;2.75;2.50;;;17.10;82.40;;;;;;5052213;28;20132;-65
2021/12/07 01:02:14;;;;;;;3.65;2.83;;;17.00;82.40;;;;;;5041592;28;20051;-65
2021/12/07 01:04:50;;;;;;;2.92;2.47;;;17.00;82.50;;;;;;5041231;28;20044;-65
2021/12/07 01:07:33;;;;;;;3.05;2.75;;;17.00;82.50;;;;;;5052325;28;20041;-65
2021/12/07 01:26:22;;;;;;;3.03;2.72;;;16.80;82.80;;;;;;5037489;28;20496;-65
2021/12/07 01:28:49;;;;;;;2.78;2.45;;;16.70;82.80;;;;;;5052088;28;20045;-65
2021/12/07 01:31:21;;;;;;;2.63;2.42;;;16.70;82.90;;;;;;5051955;28;20585;-64
2021/12/07 01:34:08;;;;;;;2.85;2.53;;;16.70;82.90;;;;;;5052145;28;20481;-65
2021/12/07 01:36:52;;;;;;;2.42;2.20;;;16.60;83.00;;;;;;5052484;28;20045;-64
2021/12/07 01:39:47;;;;;;;2.60;2.40;;;16.60;83.00;;;;;;5038579;28;20052;-65
2021/12/07 01:48:05;;;;;;;4.60;2.47;;;16.50;83.10;;;;;;5010290;28;20053;-65
2021/12/07 01:50:51;;;;;;;2.55;2.35;;;16.50;83.20;;;;;;5009382;28;20041;-65
2021/12/07 01:57:49;;;;;;;2.45;2.25;;;16.50;83.20;;;;;;5021941;28;20128;-65
2021/12/07 02:01:36;;;;;;;2.60;2.40;;;16.40;83.30;;;;;;5051625;28;20035;-65
2021/12/07 02:04:03;;;;;;;2.40;2.13;;;16.30;83.30;;;;;;5051749;28;20049;-65
2021/12/07 02:06:29;;;;;;;2.75;2.03;;;16.40;83.40;;;;;;5051555;28;20052;-65
2021/12/07 02:08:56;;;;;;;2.55;2.20;;;16.30;83.40;;;;;;5038319;28;20055;-65
2021/12/07 02:11:22;;;;;;;2.30;2.10;;;16.30;83.50;;;;;;5050339;28;20041;-65
2021/12/07 02:14:16;;;;;;;2.55;2.10;;;16.30;83.50;;;;;;5051634;28;20052;-65
2021/12/07 02:16:42;;;;;;;;;;;16.30;83.50;;;;;;5052531;28;20048;-65
2021/12/07 02:19:08;;;;;;;2.70;2.30;;;16.20;83.30;;;;;;5051509;28;20012;-64
2021/12/07 02:21:35;;;;;;;2.28;2.08;;;16.20;83.60;;;;;;5051500;28;20041;-65
2021/12/07 02:24:01;;;;;;;2.35;2.03;;;16.20;83.70;;;;;;5051842;28;20077;-65
2021/12/07 02:26:28;;;;;;;2.75;2.22;;;16.20;83.70;;;;;;5050951;28;20075;-64
2021/12/07 02:28:54;;;;;;;2.35;1.90;;;16.10;83.70;;;;;;5055195;28;20127;-64
2021/12/07 02:31:21;;;;;;;2.38;2.17;;;16.10;83.70;;;;;;5055472;28;20131;-65
2021/12/07 02:33:47;;;;;;;2.20;2.00;;;16.10;83.80;;;;;;5055911;28;20052;-64
2021/12/07 02:36:14;;;;;;;2.42;2.20;;;16.10;83.80;;;;;;5055323;28;20128;-65
2021/12/07 02:38:40;;;;;;;2.50;2.15;;;16.10;83.80;;;;;;5055132;28;20041;-64
2021/12/07 02:41:07;;;;;;;2.58;2.38;;;16.00;83.80;;;;;;5050766;28;20045;-65
2021/12/07 02:43:33;;;;;;;2.10;1.90;;;16.00;83.80;;;;;;5044090;28;20476;-65
2021/12/07 02:46:00;;;;;;;2.72;2.22;;;16.00;83.90;;;;;;5055456;28;20045;-65
2021/12/07 02:48:26;;;;;;;2.33;2.13;;;16.00;83.90;;;;;;5054316;28;20200;-65
2021/12/07 02:50:52;;;;;;;2.30;2.00;;;16.00;83.90;;;;;;5054696;28;20041;-64
2021/12/07 02:53:21;;;;;;;2.58;1.98;;;15.90;83.90;;;;;;5054991;28;20057;-65
2021/12/07 02:55:48;;;;;;;2.40;2.00;;;15.90;83.90;;;;;;5054710;28;20060;-64
2021/12/07 02:58:14;;;;;;;2.13;1.88;;;15.90;84.00;;;;;;5050753;28;20132;-65
2021/12/07 03:00:47;;;;;;;2.30;2.05;;;15.90;84.00;;;;;;5053625;28;20525;-65
2021/12/07 03:03:14;;;;;;;2.40;2.20;;;15.90;84.10;;;;;;5055029;28;20056;-64
2021/12/07 03:05:47;;;;;;;2.60;2.20;;;15.90;84.10;;;;;;5054796;28;20045;-64
2021/12/07 03:08:56;;;;;;;2.38;2.17;;;15.80;84.10;;;;;;5055189;28;20107;-65
2021/12/07 03:27:49;;;;;;;2.20;1.90;;;15.70;84.30;;;;;;5053410;28;20516;-65
2021/12/07 03:30:16;;;;;;;2.25;2.05;;;15.60;84.20;;;;;;5053710;28;20128;-64
2021/12/07 03:32:42;;;;;;;2.03;1.83;;;15.60;84.30;;;;;;5054561;28;20143;-64
2021/12/07 03:35:08;;;;;;;1.70;1.60;;;15.60;84.30;;;;;;5054510;28;20049;-64
2021/12/07 03:37:35;;;;;;;2.17;1.80;;;15.60;84.30;;;;;;5054848;28;20047;-64
2021/12/07 03:40:01;;;;;;;1.92;1.73;;;15.60;84.30;;;;;;5053229;28;20047;-64
2021/12/07 03:42:28;;;;;;;2.28;2.03;;;15.60;84.40;;;;;;5054150;28;20140;-64
2021/12/07 03:44:54;;;;;;;2.53;1.95;;;15.60;85.00;;;;;;5053797;28;20048;-64
2021/12/07 03:47:21;;;;;;;2.20;2.00;;;15.50;84.40;;;;;;5054399;28;20128;-64
2021/12/07 03:49:47;;;;;;;2.45;2.17;;;15.50;84.40;;;;;;5054041;28;20512;-64
2021/12/07 03:52:14;;;;;;;2.55;2.05;;;15.50;84.40;;;;;;5054791;28;20125;-64
2021/12/07 03:54:40;;;;;;;2.17;1.98;;;15.50;84.50;;;;;;5048774;28;20049;-64
2021/12/07 03:57:07;;;;;;;2.28;1.85;;;15.50;84.50;;;;;;5038697;28;20584;-64
2021/12/07 03:59:33;;;;;;;2.20;1.98;;;15.40;84.50;;;;;;5054372;28;20070;-65
2021/12/07 04:02:01;;;;;;;2.25;1.83;;;15.40;84.50;;;;;;5053950;28;20048;-65
2021/12/07 04:04:28;;;;;;;2.17;1.98;;;15.40;84.60;;;;;;5041998;28;20462;-64
2021/12/07 04:06:54;;;;;;;1.77;1.67;;;15.40;84.60;;;;;;5034078;28;20521;-65
2021/12/07 04:09:21;;;;;;;1.88;1.77;;;15.40;84.60;;;;;;5044671;28;20132;-64
2021/12/07 04:11:47;;;;;;;2.00;1.80;;;15.40;84.60;;;;;;5041077;28;20132;-64
2021/12/07 04:14:14;;;;;;;2.38;1.70;;;15.30;84.60;;;;;;5045650;28;20041;-64
2021/12/07 04:16:40;;;;;;;1.63;1.52;;;15.30;84.60;;;;;;5034871;28;20128;-65
2021/12/07 04:19:07;;;;;;;1.90;1.67;;;15.30;84.60;;;;;;5054194;28;20123;-64
2021/12/07 04:21:33;;;;;;;1.92;1.73;;;15.30;84.70;;;;;;5053798;28;20099;-64
2021/12/07 04:23:59;;;;;;;2.22;1.85;;;15.30;84.70;;;;;;5053927;28;20048;-64
2021/12/07 04:26:26;;;;;;;2.08;1.88;;;15.30;84.70;;;;;;5052990;28;20580;-64
2021/12/07 04:28:53;;;;;;;1.80;1.63;;;15.30;84.80;;;;;;5053573;28;20075;-64
2021/12/07 04:31:20;;;;;;;1.92;1.65;;;15.20;84.70;;;;;;5052531;28;20137;-64
2021/12/07 04:33:47;;;;;;;2.05;1.85;;;15.20;84.80;;;;;;5053635;28;20464;-64
2021/12/07 04:36:13;;;;;;;1.95;1.75;;;15.20;85.40;;;;;;5053360;28;20079;-64
2021/12/07 04:38:40;;;;;;;2.00;1.80;;;15.20;84.80;;;;;;5053682;28;20051;-64
2021/12/07 04:41:06;;;;;;;1.50;1.40;;;15.20;84.80;;;;;;5053140;28;20480;-64
2021/12/07 04:43:33;;;;;;;1.95;1.70;;;15.10;84.80;;;;;;5052878;28;20047;-64
2021/12/07 04:46:08;;;;;;;1.80;1.70;;;15.10;84.90;;;;;;5052967;28;20119;-64
2021/12/07 04:49:21;;;;;;;1.85;1.50;;;15.10;84.90;;;;;;5033219;28;20045;-64
2021/12/07 04:59:55;;;;;;;1.73;1.50;;;15.00;84.90;;;;;;5052505;28;20044;-64
2021/12/07 05:02:21;;;;;;;1.67;1.58;;;15.00;85.00;;;;;;5050792;28;20221;-64
2021/12/07 05:04:48;;;;;;;2.42;1.80;;;15.00;85.00;;;;;;5052690;28;20052;-64
2021/12/07 05:07:22;;;;;;;2.05;1.70;;;15.00;85.00;;;;;;5051373;28;20052;-64
2021/12/07 05:15:59;;;;;;;2.08;1.70;;;14.90;85.10;;;;;;5048422;28;20493;-64
2021/12/07 05:18:39;;;;;;;1.73;1.63;;;14.90;85.10;;;;;;5050854;28;20151;-65
2021/12/07 05:23:56;;;;;;;1.75;1.60;;;14.90;85.20;;;;;;5040700;28;20035;-65
2021/12/07 05:34:48;;;;;;;1.90;1.30;;;14.80;85.20;;;;;;5013625;28;20053;-64
2021/12/07 05:39:59;;;;;;;1.40;1.30;;;14.80;85.30;;;;;;5035264;28;20059;-65
2021/12/07 05:42:25;;;;;;;2.80;1.35;;;14.80;85.30;;;;;;5033548;28;20049;-65
2021/12/07 05:44:52;;;;;;;2.00;1.70;;;14.70;85.30;;;;;;5052449;28;20088;-64
2021/12/07 05:47:18;;;;;;;1.58;1.45;;;14.70;85.30;;;;;;5052054;28;20132;-64
2021/12/07 05:49:45;;;;;;;1.40;1.30;;;14.70;85.40;;;;;;5051397;28;20127;-64
2021/12/07 05:52:11;;;;;;;1.40;1.30;;;14.70;85.60;;;;;;5051644;28;20045;-64
2021/12/07 05:54:38;;;;;;;1.80;1.40;;;14.70;85.40;;;;;;5052245;28;20051;-65
2021/12/07 05:57:04;;;;;;;1.35;1.23;;;14.70;85.50;;;;;;5052092;28;20049;-65
2021/12/07 05:59:30;;;;;;;1.73;1.58;;;14.70;85.50;;;;;;5051775;28;20131;-64
2021/12/07 06:01:57;;;;;;;1.60;1.40;;;14.60;85.40;;;;;;5050046;28;20075;-64
2021/12/07 06:04:23;;;;;;;1.25;1.15;;;14.60;85.50;;;;;;5052153;28;20055;-65
2021/12/07 06:06:50;;;;;;;1.52;1.42;;;14.70;85.50;;;;;;5051734;28;20132;-64
2021/12/07 06:09:16;;;;;;;1.52;1.40;;;14.60;85.50;;;;;;5051926;28;20811;-64
2021/12/07 06:11:44;;;;;;;1.63;1.52;;;14.60;85.50;;;;;;5052054;28;20131;-64
2021/12/07 06:14:17;;;;;;;1.30;1.20;;;14.60;85.50;;;;;;5051710;28;20452;-64
2021/12/07 06:16:44;;;;;;;1.50;1.40;;;14.60;85.50;;;;;;5051341;28;20052;-64
2021/12/07 06:19:10;;;;;;;1.40;1.30;;;14.60;85.50;;;;;;5050973;28;20462;-64
2021/12/07 06:21:37;;;;;;;1.40;1.30;;;14.60;85.40;;;;;;5052071;28;20073;-64
2021/12/07 06:24:03;;;;;;;1.30;1.20;;;14.60;85.50;;;;;;5051321;28;20049;-64
2021/12/07 06:26:30;;;;;;;1.42;1.33;;;14.50;85.40;;;;;;5051945;28;20145;-64
2021/12/07 06:28:56;;;;;;;1.40;1.02;;;14.50;85.30;;;;;;5051535;28;20041;-64
2021/12/07 06:31:23;;;;;;;1.35;1.23;;;14.50;85.30;;;;;;5051938;28;20466;-64
2021/12/07 06:33:49;;;;;;;1.40;1.30;;;14.50;85.20;;;;;;5051560;28;20136;-64
2021/12/07 06:36:15;;;;;;;1.20;1.05;;;14.50;85.20;;;;;;5051162;28;20048;-64
2021/12/07 06:38:44;;;;;;;1.45;1.30;;;14.60;85.10;;;;;;5035398;28;20140;-64
2021/12/07 06:41:10;;;;;;;1.38;1.27;;;14.60;85.10;;;;;;5042221;28;20143;-64
2021/12/07 06:43:37;;;;;;;1.33;1.20;;;14.60;85.10;;;;;;5051449;28;20045;-64
2021/12/07 06:46:03;;;;;;;1.55;1.40;;;14.50;85.10;;;;;;5047815;28;20099;-64
2021/12/07 06:48:30;;;;;;;1.55;1.40;;;14.50;85.20;;;;;;5051421;28;20045;-64
2021/12/07 06:50:56;;;;;;;1.90;1.30;;;14.50;85.00;;;;;;5050811;28;20128;-64
2021/12/07 06:53:23;;;;;;;1.50;1.33;;;14.50;85.00;;;;;;5051738;28;20132;-64
2021/12/07 06:55:49;;;;;;;1.17;1.08;;;14.60;84.90;;;;;;5050612;28;20076;-64
2021/12/07 06:58:16;;;;;;;1.77;1.30;;;14.60;84.80;;;;;;5051122;28;20136;-64
2021/12/07 07:00:42;;;;;;;2.40;1.17;;;14.60;84.80;;;;;;5046806;28;20048;-64
2021/12/07 07:03:09;;;;;;;1.35;1.20;;;14.50;84.80;;;;;;5031531;28;20416;-64
2021/12/07 07:05:35;;;;;;;1.27;1.17;;;14.50;84.80;;;;;;5045512;28;20405;-65
2021/12/07 07:08:02;;;;;;;1.60;1.15;;;14.50;84.70;;;;;;5051842;28;20112;-65
2021/12/07 07:10:28;;;;;;;1.40;1.17;;;14.50;84.70;;;;;;5051270;28;20045;-64
2021/12/07 07:12:55;;;;;;;1.10;0.90;;;14.50;84.60;;;;;;5050783;28;20132;-64
2021/12/07 07:15:21;;;;;;;1.42;1.10;;;14.50;84.60;;;;;;5051958;28;20667;-64
2021/12/07 07:17:48;;;;;;;1.10;0.90;;;14.50;84.60;;;;;;5036025;28;20064;-64
2021/12/07 07:20:14;;;;;;;1.48;1.38;;;14.50;84.60;;;;;;5046706;28;20045;-64
2021/12/07 07:22:41;;;;;;;2.08;1.10;;;14.50;84.60;;;;;;5054870;28;20045;-64
2021/12/07 07:25:07;;;;;;;1.10;1.00;;;14.50;84.50;;;;;;5055284;28;20580;-64
2021/12/07 07:27:34;;;;;;;1.55;1.15;;;14.50;84.40;;;;;;5053958;28;20049;-64
2021/12/07 07:30:00;;;;;;;1.27;1.10;;;14.50;84.40;;;;;;5054464;28;20080;-64
2021/12/07 07:32:26;;;;;;;1.05;0.77;;;14.50;84.40;;;;;;5054480;28;20416;-64
2021/12/07 07:34:53;;;;;;;1.17;1.00;;;14.50;84.40;;;;;;5054944;28;20168;-64
2021/12/07 07:37:19;;;;;;;1.25;1.15;;;14.50;84.40;;;;;;5053389;28;20051;-64
2021/12/07 07:39:46;;;;;;;1.08;0.93;;;14.50;84.30;;;;;;5054672;28;20519;-64
2021/12/07 07:42:12;;;;;;;1.08;0.98;;;14.50;84.30;;;;;;5054307;28;20124;-64
2021/12/07 07:44:39;;;;;;;1.20;0.90;;;14.50;84.30;;;;;;5054079;28;20055;-64
2021/12/07 07:47:05;;;;;;;1.13;0.80;;;14.50;84.20;;;;;;5039918;28;20052;-64
2021/12/07 07:49:32;;;;;;;1.10;1.00;;;14.50;84.20;;;;;;5053585;28;20059;-64
2021/12/07 07:51:58;;;;;;;1.30;1.00;;;14.50;84.20;;;;;;5054197;28;20477;-64
2021/12/07 07:54:25;;;;;;;0.88;0.85;;;14.50;84.20;;;;;;5054565;28;20231;-64
2021/12/07 07:56:51;;;;;;;1.70;0.90;;;14.50;84.10;;;;;;5053983;28;20091;-64
2021/12/07 07:59:18;;;;;;;1.42;0.93;;;14.50;84.10;;;;;;5054283;28;20051;-64
2021/12/07 08:01:44;;;;;;;0.93;0.80;;;14.60;84.00;;;;;;5053618;28;20045;-64
2021/12/07 08:04:11;;;;;;;1.23;0.88;;;14.50;84.00;;;;;;5053727;28;20075;-64
2021/12/07 08:06:37;;;;;;;1.00;0.77;;;14.50;84.00;;;;;;5053856;28;20051;-64
2021/12/07 08:09:05;;;;;;;1.13;0.88;;;14.50;83.90;;;;;;5053980;28;20561;-64
2021/12/07 08:11:32;;;;;;;0.90;0.85;;;14.50;83.90;;;;;;5053737;28;20084;-64
2021/12/07 08:13:58;;;;;;;0.70;0.60;;;14.60;83.90;;;;;;5053881;28;20124;-64
2021/12/07 08:16:25;;;;;;;1.25;0.90;;;14.50;83.70;;;;;;5054027;28;20045;-64
2021/12/07 08:18:52;;;;;;;1.10;0.80;;;14.60;83.90;;;;;;5053171;28;20588;-64
2021/12/07 08:21:18;;;;;;;1.90;1.02;;;14.60;83.90;;;;;;5053366;28;20049;-64
2021/12/07 08:23:45;;;;;;;0.80;0.77;;;14.50;83.80;;;;;;5053369;28;20047;-64
2021/12/07 08:26:11;;;;;;;1.40;0.85;;;14.60;83.80;;;;;;5053281;28;20077;-64
2021/12/07 08:28:38;;;;;;;1.00;0.60;;;14.60;83.80;;;;;;5053630;28;20064;-64
2021/12/07 08:31:04;;;;;;;1.02;0.90;;;14.60;83.80;;;;;;5053688;28;20041;-64
2021/12/07 08:33:30;;;;;;;1.50;0.88;;;14.50;83.70;;;;;;5044538;28;20077;-64
2021/12/07 08:35:57;;;;;;;0.90;0.80;;;14.50;83.80;;;;;;5033860;28;20409;-64
2021/12/07 08:38:23;;;;;;;0.93;0.80;;;14.50;83.70;;;;;;5046840;28;20063;-64
2021/12/07 08:40:53;;;;;;;0.98;0.75;;;14.60;83.70;;;;;;5053078;28;20129;-64
2021/12/07 08:43:20;;;;;;;2.22;0.90;;;14.50;83.60;;;;;;5039530;28;20084;-65
2021/12/07 08:45:46;;;;;;;11.55;1.90;;;14.60;83.70;;;;;;5036311;28;20512;-63
2021/12/07 08:48:13;;;;;;;8.32;2.55;;;14.60;83.80;;;;;;5043058;28;20071;-64
2021/12/07 08:50:41;;;;;;;16.27;2.10;;;14.70;84.60;;;;;;5041575;28;20492;-64
2021/12/07 08:53:11;;;;;;;5.10;1.65;;;14.90;84.60;;;;;;5049051;28;20045;-63
2021/12/07 09:01:05;;;;;;;2.00;1.30;;;15.80;83.10;;;;;;5030311;28;20041;-64
2021/12/07 09:03:32;;;;;;;3.92;1.08;;;16.10;82.50;;;;;;5033934;28;20474;-64
2021/12/07 09:05:58;;;;;;;2.85;1.10;;;16.40;82.00;;;;;;5050128;28;20053;-64
2021/12/07 09:08:24;;;;;;;2.92;1.40;;;16.70;81.50;;;;;;5045582;28;20059;-64
2021/12/07 09:10:51;;;;;;;2.08;1.00;;;17.10;81.00;;;;;;5034177;28;20527;-64
2021/12/07 09:13:19;;;;;;;3.47;0.70;;;17.30;80.60;;;;;;5041495;28;20050;-64
2021/12/07 09:15:46;;;;;;;1.30;0.90;;;17.50;80.20;;;;;;5033206;28;20044;-63
2021/12/07 09:18:12;;;;;;;1.80;0.90;;;17.70;79.90;;;;;;5042440;28;20458;-63
2021/12/07 09:20:38;;;;;;;1.60;0.80;;;17.90;79.60;;;;;;5040987;28;20123;-64
2021/12/07 09:23:05;;;;;;;3.50;0.90;;;18.10;79.40;;;;;;5049527;28;20136;-64
2021/12/07 09:25:31;;;;;;;1.75;0.82;;;18.30;79.20;;;;;;5048895;28;20618;-64
2021/12/07 09:27:58;;;;;;;2.40;0.70;;;18.50;79.00;;;;;;5049170;28;20391;-64
2021/12/07 09:30:24;;;;;;;2.53;0.68;;;18.60;78.70;;;;;;5049425;28;20041;-64
2021/12/07 09:32:51;;;;;;;1.42;0.90;;;18.80;78.50;;;;;;5047023;28;20128;-64
2021/12/07 09:35:17;;;;;;;0.98;0.55;;;19.00;78.30;;;;;;5037649;28;20587;-64
2021/12/07 09:37:44;;;;;;;1.88;0.63;;;19.10;78.10;;;;;;5047106;28;20124;-65
2021/12/07 09:40:10;;;;;;;1.35;0.80;;;19.30;78.00;;;;;;5048064;28;20131;-65
2021/12/07 09:42:37;;;;;;;0.75;0.50;;;19.40;77.80;;;;;;5047671;28;20045;-64
2021/12/07 09:45:03;;;;;;;0.75;0.60;;;19.50;77.60;;;;;;5048458;28;20512;-65
2021/12/07 09:47:30;;;;;;;0.80;0.60;;;19.60;77.40;;;;;;5048141;28;20071;-65
2021/12/07 09:49:56;;;;;;;5.80;0.70;;;19.70;77.20;;;;;;5048880;28;20052;-65
2021/12/07 09:52:24;;;;;;;1.23;0.60;;;19.80;77.10;;;;;;5048973;28;20051;-65
2021/12/07 09:54:50;;;;;;;2.13;0.60;;;19.90;76.90;;;;;;5049410;28;20053;-65
2021/12/07 09:57:18;;;;;;;1.42;0.50;;;20.00;76.90;;;;;;5048197;28;20060;-65
2021/12/07 09:59:44;;;;;;;0.77;0.50;;;20.00;76.70;;;;;;5048698;28;20080;-65
2021/12/07 10:02:11;;;;;;;0.50;0.25;;;20.10;76.60;;;;;;5046811;28;20406;-64
2021/12/07 10:04:37;;;;;;;1.42;0.57;;;20.10;76.50;;;;;;5031832;28;20081;-65
2021/12/07 10:07:04;;;;;;;1.00;0.52;;;20.20;76.50;;;;;;5049296;28;20048;-65
2021/12/07 10:09:33;;;;;;;1.17;0.65;;;20.20;76.40;;;;;;5049258;28;20525;-64
2021/12/07 10:12:00;;;;;;;0.70;0.40;;;20.20;76.30;;;;;;5048445;28;20055;-65
2021/12/07 10:14:26;;;;;;;0.60;0.40;;;20.20;76.30;;;;;;5049107;28;20053;-65
2021/12/07 10:16:53;;;;;;;1.65;0.45;;;20.30;76.30;;;;;;5048764;28;20045;-65
2021/12/07 10:19:19;;;;;;;1.85;0.55;;;20.30;76.30;;;;;;5048041;28;20154;-65
2021/12/07 10:21:48;;;;;;;1.77;1.05;;;20.30;76.30;;;;;;5049030;28;20087;-66
2021/12/07 10:24:21;;;;;;;1.23;0.40;;;20.30;76.30;;;;;;5036499;28;20053;-66
2021/12/07 10:26:48;;;;;;;;;;;20.30;76.20;;;;;;5048537;28;20049;-66
2021/12/07 10:29:14;;;;;;;0.60;0.47;;;20.30;76.90;;;;;;5048678;28;19924;-66
2021/12/07 10:31:41;;;;;;;0.70;0.40;;;20.30;76.40;;;;;;5048854;28;20132;-66
2021/12/07 10:34:07;;;;;;;0.80;0.47;;;20.30;76.30;;;;;;4978324;28;20125;-66
2021/12/07 10:36:34;;;;;;;0.98;0.40;;;20.30;76.20;;;;;;4989738;28;20038;-66
2021/12/07 10:39:00;;;;;;;0.88;0.38;;;20.30;76.20;;;;;;4989699;28;20082;-65
2021/12/07 10:41:27;;;;;;;0.80;0.52;;;20.30;76.20;;;;;;4988003;28;20050;-65
2021/12/07 10:43:53;;;;;;;1.38;0.40;;;20.30;76.20;;;;;;4989252;28;20056;-65
2021/12/07 10:46:20;;;;;;;0.90;0.50;;;20.30;76.20;;;;;;4988605;28;20125;-65
2021/12/07 10:48:46;;;;;;;0.93;0.45;;;20.30;76.30;;;;;;4989608;28;20085;-65
2021/12/07 10:51:13;;;;;;;1.67;0.60;;;20.30;76.20;;;;;;4993271;28;20124;-65
2021/12/07 10:53:39;;;;;;;0.90;0.50;;;20.30;76.20;;;;;;4993720;28;20049;-65
2021/12/07 10:56:06;;;;;;;0.77;0.40;;;20.30;76.20;;;;;;4992421;28;20500;-65
2021/12/07 10:58:32;;;;;;;1.25;0.63;;;20.30;76.30;;;;;;4974939;28;20119;-65
2021/12/07 11:00:59;;;;;;;0.77;0.40;;;20.30;76.30;;;;;;4974109;28;20141;-65
2021/12/07 11:03:25;;;;;;;0.85;0.50;;;20.30;76.30;;;;;;4979867;28;20113;-65
2021/12/07 11:05:54;;;;;;;1.23;0.55;;;20.30;76.20;;;;;;4992792;28;20137;-65
2021/12/07 11:08:20;;;;;;;1.17;0.63;;;20.30;76.30;;;;;;4992901;28;20050;-65
2021/12/07 11:10:48;;;;;;;1.48;0.57;;;20.30;76.30;;;;;;4992884;28;20089;-65
2021/12/07 11:13:16;;;;;;;1.42;0.60;;;20.30;76.30;;;;;;4992654;28;20058;-65
2021/12/07 11:15:49;;;;;;;1.08;0.45;;;20.40;76.30;;;;;;4992238;28;20592;-65
2021/12/07 11:18:15;;;;;;;;;;;20.30;76.30;;;;;;4993606;28;20126;-65
2021/12/07 11:20:42;;;;;;;1.55;0.60;;;20.40;77.00;;;;;;4992607;28;19929;-65
2021/12/07 11:23:08;;;;;;;0.73;0.40;;;20.40;76.60;;;;;;4992583;28;20173;-65
2021/12/07 11:31:03;;;;;;;0.93;0.40;;;20.30;76.40;;;;;;4991067;28;20061;-65
2021/12/07 11:33:29;;;;;;;0.82;0.60;;;20.40;76.40;;;;;;4992014;28;20050;-65
2021/12/07 11:35:56;;;;;;;1.58;0.55;;;20.30;76.40;;;;;;4991912;28;20042;-65
2021/12/07 11:38:22;;;;;;;1.50;0.70;;;20.30;76.40;;;;;;4991812;28;20632;-65
2021/12/07 11:40:49;;;;;;;1.20;0.52;;;20.40;76.40;;;;;;4992243;28;20150;-65
2021/12/07 11:43:15;;;;;;;2.10;0.68;;;20.40;76.50;;;;;;4992661;28;20042;-65
2021/12/07 11:45:42;;;;;;;1.23;0.50;;;20.40;76.40;;;;;;4992589;28;20149;-65
2021/12/07 11:48:08;;;;;;;0.57;0.30;;;20.40;76.50;;;;;;4991153;28;20702;-65
2021/12/07 11:50:35;;;;;;;1.02;0.57;;;20.30;76.40;;;;;;4992468;28;20043;-65
2021/12/07 11:53:01;;;;;;;1.23;0.63;;;20.30;76.40;;;;;;4991840;28;20130;-65
2021/12/07 11:55:27;;;;;;;1.40;0.60;;;20.40;76.50;;;;;;4992347;28;20582;-65
2021/12/07 11:57:57;;;;;;;0.88;0.50;;;20.40;76.50;;;;;;4991792;28;20093;-65
2021/12/07 12:00:23;;;;;;;1.17;0.50;;;20.30;76.50;;;;;;4991155;28;20133;-65
2021/12/07 12:02:50;;;;;;;1.23;0.52;;;20.30;76.50;;;;;;4987228;28;20038;-65
2021/12/07 12:05:16;;;;;;;1.15;0.40;;;20.40;76.60;;;;;;4992363;28;20060;-65
2021/12/07 12:07:44;;;;;;;1.20;0.50;;;20.30;76.50;;;;;;4991799;28;20065;-65
2021/12/07 12:10:12;;;;;;;0.77;0.50;;;20.30;76.50;;;;;;4992518;28;20133;-65
2021/12/07 12:12:38;;;;;;;1.58;0.70;;;20.30;76.50;;;;;;4986780;28;20042;-65
2021/12/07 12:15:05;;;;;;;2.08;0.82;;;20.30;76.60;;;;;;4981860;28;20171;-65
2021/12/07 12:17:31;;;;;;;0.93;0.50;;;20.30;76.60;;;;;;4991321;28;20053;-65
2021/12/07 12:19:57;;;;;;;1.08;0.50;;;20.30;76.60;;;;;;4987763;28;20129;-65
2021/12/07 12:22:24;;;;;;;1.25;0.50;;;20.30;76.60;;;;;;4987948;28;20482;-65
2021/12/07 12:24:50;;;;;;;2.33;0.60;;;20.30;76.70;;;;;;4986674;28;20125;-65
2021/12/07 12:27:17;;;;;;;1.30;0.50;;;20.30;76.70;;;;;;4990178;28;20046;-65
2021/12/07 12:29:43;;;;;;;1.77;0.70;;;20.30;76.80;;;;;;4991415;28;20145;-65
2021/12/07 12:32:10;;;;;;;2.03;0.60;;;20.30;76.90;;;;;;4985076;28;20454;-65
2021/12/07 12:34:36;;;;;;;2.30;0.77;;;20.30;77.60;;;;;;4986189;28;20126;-65
2021/12/07 12:37:03;;;;;;;1.33;0.70;;;20.30;77.10;;;;;;4990444;28;20050;-64
2021/12/07 12:39:29;;;;;;;2.13;0.50;;;20.30;77.10;;;;;;4992510;28;20471;-64
2021/12/07 12:41:56;;;;;;;2.53;0.60;;;20.30;77.30;;;;;;4992087;28;20122;-65
2021/12/07 12:44:25;;;;;;;1.98;0.73;;;20.20;77.40;;;;;;4979874;28;20136;-65
2021/12/07 12:46:52;;;;;;;2.58;0.70;;;20.30;77.60;;;;;;4990777;28;20050;-64
2021/12/07 12:49:18;;;;;;;2.25;0.70;;;20.20;77.70;;;;;;4991599;28;20129;-65
2021/12/07 12:51:44;;;;;;;2.58;0.55;;;20.30;77.90;;;;;;4991165;28;20058;-65
2021/12/07 12:54:11;;;;;;;3.00;0.70;;;20.30;78.00;;;;;;4990286;28;20129;-65
2021/12/07 12:56:39;;;;;;;1.95;1.00;;;20.30;78.00;;;;;;4989635;28;20467;-64
2021/12/07 12:59:05;;;;;;;1.67;0.50;;;20.30;78.10;;;;;;4976259;28;20050;-65
2021/12/07 13:01:32;;;;;;;1.40;0.60;;;20.30;78.20;;;;;;4976591;28;20142;-65
2021/12/07 13:03:59;;;;;;;1.58;0.68;;;20.30;78.20;;;;;;4991232;28;20176;-65
2021/12/07 13:06:26;;;;;;;2.33;0.70;;;20.30;78.30;;;;;;4990719;28;20054;-65
2021/12/07 13:08:52;;;;;;;2.47;0.80;;;20.30;78.40;;;;;;4988939;28;20047;-65
2021/12/07 13:11:19;;;;;;;2.03;0.80;;;20.30;78.50;;;;;;4989434;28;20567;-65
2021/12/07 13:13:45;;;;;;;1.35;0.57;;;20.30;78.60;;;;;;4974204;28;20054;-65
2021/12/07 13:16:12;;;;;;;1.13;0.70;;;20.30;78.60;;;;;;4987085;28;20133;-65
2021/12/07 13:18:38;;;;;;;1.95;0.65;;;20.30;78.70;;;;;;4989066;28;20500;-65
2021/12/07 13:21:05;;;;;;;2.25;0.73;;;20.20;78.70;;;;;;4981183;28;20117;-65
2021/12/07 13:23:32;;;;;;;2.55;0.60;;;20.20;78.80;;;;;;4984544;28;20077;-66
2021/12/07 13:25:58;;;;;;;2.05;0.63;;;20.20;78.90;;;;;;4990454;28;20065;-65
2021/12/07 13:28:25;;;;;;;1.67;0.50;;;20.20;79.00;;;;;;4991310;28;20594;-65
2021/12/07 13:30:51;;;;;;;1.90;0.65;;;20.20;79.00;;;;;;4982447;28;20161;-65
2021/12/07 13:33:18;;;;;;;2.15;0.60;;;20.20;79.00;;;;;;4984630;28;20499;-65
2021/12/07 13:35:44;;;;;;;1.65;0.60;;;20.20;79.10;;;;;;4991532;28;20043;-66
2021/12/07 13:38:11;;;;;;;2.42;0.63;;;20.20;79.20;;;;;;4991217;28;20109;-67
2021/12/07 13:40:37;;;;;;;2.17;0.65;;;20.10;79.10;;;;;;4981077;28;20077;-66
2021/12/07 13:43:04;;;;;;;1.10;0.50;;;20.10;79.10;;;;;;4990753;28;20082;-66
2021/12/07 13:45:30;;;;;;;1.40;0.60;;;20.10;79.30;;;;;;4986778;28;20105;-66
2021/12/07 13:47:57;;;;;;;2.10;0.57;;;20.10;79.30;;;;;;4984402;28;20137;-66
2021/12/07 13:50:24;;;;;;;1.95;0.50;;;20.10;79.80;;;;;;4988784;28;20153;-65
2021/12/07 13:52:50;;;;;;;0.93;0.50;;;20.10;79.30;;;;;;4982442;28;20050;-65
2021/12/07 13:55:17;;;;;;;1.08;0.60;;;20.00;79.40;;;;;;4975228;28;20057;-66
2021/12/07 13:57:43;;;;;;;1.45;0.57;;;20.00;79.40;;;;;;4988304;28;20528;-66
2021/12/07 14:00:10;;;;;;;1.55;0.60;;;20.10;79.40;;;;;;4991815;28;20121;-65
2021/12/07 14:02:36;;;;;;;1.90;0.70;;;20.00;79.40;;;;;;4992091;28;20133;-65
2021/12/07 14:05:03;;;;;;;1.85;0.52;;;20.00;79.30;;;;;;4986796;28;20134;-65
2021/12/07 14:07:29;;;;;;;2.13;0.75;;;20.10;79.30;;;;;;4972561;28;20101;-65
2021/12/07 14:09:56;;;;;;;1.38;0.50;;;20.10;79.30;;;;;;4972483;28;20134;-65
2021/12/07 14:12:22;;;;;;;1.33;0.60;;;20.00;79.20;;;;;;4971077;28;20494;-65